createdAt,value
2023-03-23T15:59:42.949Z,55.93
2023-03-23T16:01:44.509Z,55.63
2023-03-23T16:03:50.924Z,56.15
2023-03-23T16:05:52.496Z,54.80
2023-03-23T16:07:54.610Z,54.28
2023-03-23T16:09:56.290Z,54.65
2023-03-23T16:11:57.855Z,54.44
2023-03-23T16:14:00.053Z,55.03
2023-03-23T16:16:01.678Z,55.18
2023-03-23T16:18:03.571Z,56.00
2023-03-23T16:20:13.409Z,55.80
2023-03-23T16:22:16.590Z,55.69
2023-03-23T16:24:18.958Z,55.64
2023-03-23T16:26:20.690Z,55.78
2023-03-23T16:28:22.235Z,56.20
2023-03-23T16:30:26.487Z,55.85
2023-03-23T16:32:28.096Z,56.02
2023-03-23T16:34:29.747Z,56.88
2023-03-23T16:36:32.776Z,56.40
2023-03-23T16:38:34.481Z,56.95
2023-03-23T16:40:51.853Z,56.91
2023-03-23T16:42:54.030Z,56.97
2023-03-23T16:44:56.711Z,57.31
2023-03-23T16:46:58.374Z,56.96
2023-03-23T16:48:59.986Z,57.39
2023-03-23T16:51:01.696Z,57.89
2023-03-23T16:53:05.955Z,57.99
2023-03-23T16:55:08.932Z,57.61
2023-03-23T16:57:10.756Z,57.66
2023-03-23T16:59:13.951Z,57.15
2023-03-23T17:01:15.492Z,57.38
2023-03-23T17:03:18.234Z,57.70
2023-03-23T17:05:20.951Z,57.07
2023-03-23T17:07:22.504Z,57.40
2023-03-23T17:09:26.028Z,56.99
2023-03-23T17:11:27.673Z,56.04
2023-03-23T17:13:29.376Z,55.86
2023-03-23T17:15:31.146Z,56.52
2023-03-23T17:17:32.799Z,56.26
2023-03-23T17:19:34.435Z,55.93
2023-03-23T17:21:36.025Z,55.91
2023-03-23T17:23:37.739Z,55.67
2023-03-23T17:25:40.936Z,56.17
2023-03-23T17:27:42.670Z,55.53
2023-03-23T17:29:44.289Z,55.81
2023-03-23T17:31:45.859Z,55.36
2023-03-23T17:33:47.586Z,55.56
2023-03-23T17:35:49.287Z,55.38
2023-03-23T17:37:50.952Z,55.23
2023-03-23T17:39:52.564Z,55.30
2023-03-23T17:41:59.176Z,54.87
2023-03-23T17:44:00.825Z,55.12
2023-03-23T17:46:02.472Z,55.07
2023-03-23T17:48:04.452Z,55.65
2023-03-23T17:50:11.226Z,56.12
2023-03-23T17:52:14.510Z,57.58
2023-03-23T17:54:16.113Z,56.04
2023-03-23T17:56:17.861Z,56.47
2023-03-23T17:58:20.846Z,56.63
2023-03-23T18:00:22.442Z,55.88
2023-03-23T18:02:24.000Z,55.95
2023-03-23T18:04:26.033Z,56.53
2023-03-23T18:06:27.653Z,56.08
2023-03-23T18:08:29.772Z,55.53
2023-03-23T18:10:31.419Z,54.84
2023-03-23T18:12:33.226Z,54.69
2023-03-23T18:14:36.300Z,54.83
2023-03-23T18:16:38.167Z,54.72
2023-03-23T18:18:39.940Z,55.02
2023-03-23T18:20:41.494Z,55.22
2023-03-23T18:22:43.200Z,55.14
2023-03-23T18:24:44.935Z,55.86
2023-03-23T18:26:46.769Z,56.31
2023-03-23T18:28:49.907Z,56.24
2023-03-23T18:30:53.046Z,55.72
2023-03-23T18:32:54.690Z,56.60
2023-03-23T18:34:58.800Z,55.77
2023-03-23T18:37:00.534Z,55.07
2023-03-23T18:39:03.906Z,55.24
2023-03-23T18:41:07.152Z,54.93
2023-03-23T18:43:08.847Z,54.60
2023-03-23T18:45:11.010Z,55.52
2023-03-23T18:47:14.211Z,54.94
2023-03-23T18:49:15.798Z,54.78
2023-03-23T18:51:17.316Z,54.90
2023-03-23T18:53:19.910Z,55.16
2023-03-23T18:55:22.167Z,54.65
2023-03-23T18:57:23.906Z,54.76
2023-03-23T18:59:25.455Z,55.51
2023-03-23T19:01:27.115Z,55.70
2023-03-23T19:03:30.132Z,57.01
2023-03-23T19:05:32.448Z,56.41
2023-03-23T19:07:37.072Z,57.21
2023-03-23T19:09:38.664Z,57.88
2023-03-23T19:11:40.249Z,58.36
2023-03-23T19:13:53.788Z,58.49
2023-03-23T19:16:00.901Z,58.31
2023-03-23T19:18:02.552Z,58.31
2023-03-23T19:20:07.546Z,58.09
2023-03-23T19:22:09.090Z,58.18
2023-03-23T19:24:11.404Z,58.24
2023-03-23T19:26:21.931Z,58.25
2023-03-23T19:29:03.763Z,58.49
2023-03-23T19:30:47.115Z,58.38
2023-03-23T19:32:48.817Z,59.26
2023-03-23T19:34:51.241Z,59.06
2023-03-23T19:37:03.188Z,59.13
2023-03-23T19:39:07.815Z,58.84
2023-03-23T19:41:10.680Z,57.35
2023-03-23T19:43:12.231Z,56.82
2023-03-23T19:45:16.796Z,56.44
2023-03-23T19:47:18.421Z,56.51
2023-03-23T19:49:20.397Z,55.93
2023-03-23T19:51:22.741Z,56.56
2023-03-23T19:53:27.759Z,56.40
2023-03-23T19:55:29.462Z,56.34
2023-03-23T19:57:31.168Z,56.28
2023-03-23T19:59:32.747Z,56.20
2023-03-23T20:01:34.320Z,56.38
2023-03-23T20:03:36.229Z,56.19
2023-03-23T20:05:37.983Z,56.19
2023-03-23T20:07:41.629Z,55.97
2023-03-23T20:09:48.409Z,55.96
2023-03-23T20:11:50.391Z,55.96
2023-03-23T20:13:52.081Z,55.95
2023-03-23T20:15:53.685Z,55.72
2023-03-23T20:17:58.307Z,56.11
2023-03-23T20:20:00.079Z,55.70
2023-03-23T20:22:01.768Z,55.71
2023-03-23T20:24:03.455Z,55.65
2023-03-23T20:26:10.014Z,55.50
2023-03-23T20:28:11.611Z,55.33
2023-03-23T20:30:13.587Z,55.44
2023-03-23T20:32:15.127Z,55.00
2023-03-23T20:34:17.311Z,55.46
2023-03-23T20:36:18.896Z,55.55
2023-03-23T20:38:20.556Z,55.30
2023-03-23T20:40:22.167Z,55.54
2023-03-23T20:42:25.056Z,55.20
2023-03-23T20:44:26.718Z,55.42
2023-03-23T20:46:28.876Z,55.11
2023-03-23T20:48:32.491Z,54.82
2023-03-23T20:50:34.064Z,54.82
2023-03-23T20:52:36.072Z,55.00
2023-03-23T20:54:38.229Z,54.85
2023-03-23T20:56:39.878Z,54.54
2023-03-23T20:58:43.006Z,54.71
2023-03-23T21:00:45.734Z,55.17
2023-03-23T21:02:47.404Z,54.96
2023-03-23T21:04:49.784Z,54.61
2023-03-23T21:06:51.333Z,54.36
2023-03-23T21:08:52.941Z,54.30
2023-03-23T21:10:55.855Z,54.07
2023-03-23T21:12:57.402Z,53.66
2023-03-23T21:15:00.652Z,53.95
2023-03-23T21:17:02.932Z,54.08
2023-03-23T21:19:09.127Z,53.89
2023-03-23T21:21:11.688Z,53.83
2023-03-23T21:23:13.309Z,54.16
2023-03-23T21:25:15.115Z,53.94
2023-03-23T21:27:17.244Z,53.76
2023-03-23T21:29:19.884Z,53.69
2023-03-23T21:31:22.816Z,53.47
2023-03-23T21:33:24.419Z,53.68
2023-03-23T21:35:26.240Z,54.01
2023-03-23T21:37:27.926Z,53.97
2023-03-23T21:39:29.488Z,53.91
2023-03-23T21:41:31.089Z,53.92
2023-03-23T21:43:44.193Z,53.81
2023-03-23T21:45:46.014Z,54.19
2023-03-23T21:47:49.054Z,53.52
2023-03-23T21:49:50.630Z,53.31
2023-03-23T21:51:52.194Z,53.17
2023-03-23T21:53:55.456Z,53.37
2023-03-23T21:55:56.981Z,53.06
2023-03-23T21:57:58.557Z,53.37
2023-03-23T22:00:00.582Z,53.36
2023-03-23T22:02:02.317Z,53.08
2023-03-23T22:04:05.688Z,53.07
2023-03-23T22:06:11.645Z,53.14
2023-03-23T22:08:13.220Z,53.07
2023-03-23T22:10:15.181Z,53.09
2023-03-23T22:12:17.410Z,52.77
2023-03-23T22:14:18.984Z,52.86
2023-03-23T22:16:21.545Z,52.76
2023-03-23T22:18:23.183Z,52.51
2023-03-23T22:20:26.626Z,52.60
2023-03-23T22:22:28.188Z,53.13
2023-03-23T22:24:30.055Z,53.08
2023-03-23T22:26:31.842Z,53.87
2023-03-23T22:28:34.069Z,53.95
2023-03-23T22:30:35.919Z,53.79
2023-03-23T22:32:37.558Z,53.81
2023-03-23T22:34:39.195Z,54.34
2023-03-23T22:36:42.662Z,54.39
2023-03-23T22:38:46.042Z,54.63
2023-03-23T22:40:54.743Z,54.98
2023-03-23T22:42:57.162Z,55.13
2023-03-23T22:44:58.899Z,55.08
2023-03-23T22:47:00.587Z,54.56
2023-03-23T22:49:02.369Z,54.93
2023-03-23T22:51:04.355Z,54.79
2023-03-23T22:53:07.370Z,55.05
2023-03-23T22:55:09.980Z,55.07
2023-03-23T22:57:11.715Z,55.08
2023-03-23T22:59:13.414Z,54.74
2023-03-23T23:01:17.370Z,55.05
2023-03-23T23:03:18.966Z,54.68
2023-03-23T23:05:20.617Z,55.32
2023-03-23T23:07:22.259Z,55.48
2023-03-23T23:09:25.232Z,55.84
2023-03-23T23:11:27.235Z,55.22
2023-03-23T23:13:31.224Z,54.88
2023-03-23T23:15:42.354Z,54.34
2023-03-23T23:17:44.011Z,54.51
2023-03-23T23:19:45.681Z,54.35
2023-03-23T23:21:47.228Z,54.62
2023-03-23T23:23:49.177Z,54.86
2023-03-23T23:25:52.638Z,54.95
2023-03-23T23:27:54.507Z,55.47
2023-03-23T23:29:56.185Z,55.11
2023-03-23T23:31:57.931Z,55.59
2023-03-23T23:34:01.287Z,55.51
2023-03-23T23:36:03.067Z,55.36
2023-03-23T23:38:05.340Z,55.36
2023-03-23T23:40:08.089Z,55.13
2023-03-23T23:42:11.197Z,54.94
2023-03-23T23:44:12.955Z,55.10
2023-03-23T23:46:14.679Z,55.37
2023-03-23T23:48:16.517Z,56.20
2023-03-23T23:50:18.652Z,56.04
2023-03-23T23:52:20.193Z,56.64
2023-03-23T23:54:21.833Z,56.73
2023-03-23T23:56:23.609Z,56.88
2023-03-23T23:58:26.766Z,56.79
